sensor_id;sensor_type;location;lat;lon;timestamp;temperature;humidity
70246;SHT30;57637;49.272;8.590;2022-11-10T00:00:40;10.90;99.36
70246;SHT30;57637;49.272;8.590;2022-11-10T00:03:06;10.88;99.36
70246;SHT30;57637;49.272;8.590;2022-11-10T00:05:34;10.87;99.41
70246;SHT30;57637;49.272;8.590;2022-11-10T00:08:02;10.83;99.28
70246;SHT30;57637;49.272;8.590;2022-11-10T00:10:29;10.80;99.37
70246;SHT30;57637;49.272;8.590;2022-11-10T00:12:58;10.75;99.32
70246;SHT30;57637;49.272;8.590;2022-11-10T00:15:24;10.71;99.33
70246;SHT30;57637;49.272;8.590;2022-11-10T00:18:08;10.65;99.33
70246;SHT30;57637;49.272;8.590;2022-11-10T00:20:34;10.63;99.31
70246;SHT30;57637;49.272;8.590;2022-11-10T00:22:59;10.53;99.32
70246;SHT30;57637;49.272;8.590;2022-11-10T00:25:25;10.50;99.38
70246;SHT30;57637;49.272;8.590;2022-11-10T00:27:51;10.47;99.42
70246;SHT30;57637;49.272;8.590;2022-11-10T00:30:16;10.39;99.43
70246;SHT30;57637;49.272;8.590;2022-11-10T00:32:41;10.36;99.49
70246;SHT30;57637;49.272;8.590;2022-11-10T00:35:07;10.32;99.48
70246;SHT30;57637;49.272;8.590;2022-11-10T00:37:32;10.30;99.59
70246;SHT30;57637;49.272;8.590;2022-11-10T00:39:58;10.19;99.51
70246;SHT30;57637;49.272;8.590;2022-11-10T00:42:23;10.16;99.59
70246;SHT30;57637;49.272;8.590;2022-11-10T00:44:49;10.10;99.59
70246;SHT30;57637;49.272;8.590;2022-11-10T00:47:14;10.09;99.64
70246;SHT30;57637;49.272;8.590;2022-11-10T00:49:40;10.08;99.69
70246;SHT30;57637;49.272;8.590;2022-11-10T00:52:05;10.05;99.73
70246;SHT30;57637;49.272;8.590;2022-11-10T00:54:30;10.08;99.77
70246;SHT30;57637;49.272;8.590;2022-11-10T00:56:56;10.06;99.76
70246;SHT30;57637;49.272;8.590;2022-11-10T00:59:21;10.03;99.76
70246;SHT30;57637;49.272;8.590;2022-11-10T01:01:46;9.98;99.78
70246;SHT30;57637;49.272;8.590;2022-11-10T01:04:12;9.99;99.82
70246;SHT30;57637;49.272;8.590;2022-11-10T01:06:37;9.96;99.81
70246;SHT30;57637;49.272;8.590;2022-11-10T01:09:03;9.89;99.76
70246;SHT30;57637;49.272;8.590;2022-11-10T01:11:28;9.89;99.86
70246;SHT30;57637;49.272;8.590;2022-11-10T01:13:54;9.86;99.89
70246;SHT30;57637;49.272;8.590;2022-11-10T01:16:21;9.86;99.91
70246;SHT30;57637;49.272;8.590;2022-11-10T01:18:53;9.82;99.90
70246;SHT30;57637;49.272;8.590;2022-11-10T01:21:20;9.81;99.86
70246;SHT30;57637;49.272;8.590;2022-11-10T01:23:46;9.74;99.89
70246;SHT30;57637;49.272;8.590;2022-11-10T01:26:13;9.68;99.84
70246;SHT30;57637;49.272;8.590;2022-11-10T01:28:39;9.63;99.85
70246;SHT30;57637;49.272;8.590;2022-11-10T01:31:06;9.58;99.85
70246;SHT30;57637;49.272;8.590;2022-11-10T01:33:34;9.59;99.99
70246;SHT30;57637;49.272;8.590;2022-11-10T01:36:00;9.55;99.99
70246;SHT30;57637;49.272;8.590;2022-11-10T01:38:29;9.52;99.99
70246;SHT30;57637;49.272;8.590;2022-11-10T01:40:57;9.50;99.99
70246;SHT30;57637;49.272;8.590;2022-11-10T01:43:23;9.45;99.99
70246;SHT30;57637;49.272;8.590;2022-11-10T01:45:53;9.40;99.99
70246;SHT30;57637;49.272;8.590;2022-11-10T01:51:19;9.32;99.99
70246;SHT30;57637;49.272;8.590;2022-11-10T01:53:54;9.27;99.99
70246;SHT30;57637;49.272;8.590;2022-11-10T01:56:22;9.23;99.99
70246;SHT30;57637;49.272;8.590;2022-11-10T01:58:51;9.20;99.99
70246;SHT30;57637;49.272;8.590;2022-11-10T02:01:20;9.18;99.99
70246;SHT30;57637;49.272;8.590;2022-11-10T02:03:48;9.13;99.99
70246;SHT30;57637;49.272;8.590;2022-11-10T02:06:19;9.10;99.99
70246;SHT30;57637;49.272;8.590;2022-11-10T02:08:49;9.06;99.99
70246;SHT30;57637;49.272;8.590;2022-11-10T02:11:15;9.04;99.99
70246;SHT30;57637;49.272;8.590;2022-11-10T02:13:40;9.01;99.99
70246;SHT30;57637;49.272;8.590;2022-11-10T02:16:07;9.00;99.99
70246;SHT30;57637;49.272;8.590;2022-11-10T02:18:33;8.99;99.99
70246;SHT30;57637;49.272;8.590;2022-11-10T02:21:02;8.93;99.99
70246;SHT30;57637;49.272;8.590;2022-11-10T02:25:54;8.89;99.99
70246;SHT30;57637;49.272;8.590;2022-11-10T02:28:20;8.90;99.99
70246;SHT30;57637;49.272;8.590;2022-11-10T02:30:45;8.89;99.99
70246;SHT30;57637;49.272;8.590;2022-11-10T02:33:11;8.90;99.99
70246;SHT30;57637;49.272;8.590;2022-11-10T02:35:36;8.89;99.99
70246;SHT30;57637;49.272;8.590;2022-11-10T02:38:02;8.89;99.99
70246;SHT30;57637;49.272;8.590;2022-11-10T02:40:27;8.84;99.99
70246;SHT30;57637;49.272;8.590;2022-11-10T02:42:52;8.86;99.99
70246;SHT30;57637;49.272;8.590;2022-11-10T02:45:18;8.83;99.99
70246;SHT30;57637;49.272;8.590;2022-11-10T02:47:43;8.80;99.99
70246;SHT30;57637;49.272;8.590;2022-11-10T02:50:08;8.76;99.99
70246;SHT30;57637;49.272;8.590;2022-11-10T02:52:34;8.67;99.99
70246;SHT30;57637;49.272;8.590;2022-11-10T02:54:59;8.63;99.99
70246;SHT30;57637;49.272;8.590;2022-11-10T02:57:24;8.59;99.99
70246;SHT30;57637;49.272;8.590;2022-11-10T02:59:51;8.62;99.99
70246;SHT30;57637;49.272;8.590;2022-11-10T03:02:16;8.57;99.99
70246;SHT30;57637;49.272;8.590;2022-11-10T03:04:42;8.57;99.99
70246;SHT30;57637;49.272;8.590;2022-11-10T03:07:07;8.57;99.99
70246;SHT30;57637;49.272;8.590;2022-11-10T03:09:33;8.57;99.99
70246;SHT30;57637;49.272;8.590;2022-11-10T03:11:58;8.59;99.99
70246;SHT30;57637;49.272;8.590;2022-11-10T03:14:23;8.53;99.99
70246;SHT30;57637;49.272;8.590;2022-11-10T03:16:49;8.49;99.99
70246;SHT30;57637;49.272;8.590;2022-11-10T03:19:14;8.44;99.99
70246;SHT30;57637;49.272;8.590;2022-11-10T03:21:39;8.41;99.99
70246;SHT30;57637;49.272;8.590;2022-11-10T03:24:05;8.38;99.99
70246;SHT30;57637;49.272;8.590;2022-11-10T03:26:30;8.34;99.99
70246;SHT30;57637;49.272;8.590;2022-11-10T03:28:55;8.34;99.99
70246;SHT30;57637;49.272;8.590;2022-11-10T03:31:21;8.34;99.99
70246;SHT30;57637;49.272;8.590;2022-11-10T03:33:46;8.29;99.99
70246;SHT30;57637;49.272;8.590;2022-11-10T03:36:11;8.29;99.99
70246;SHT30;57637;49.272;8.590;2022-11-10T03:38:37;8.26;99.99
70246;SHT30;57637;49.272;8.590;2022-11-10T03:41:03;8.28;99.99
70246;SHT30;57637;49.272;8.590;2022-11-10T03:43:28;8.28;99.99
70246;SHT30;57637;49.272;8.590;2022-11-10T03:45:54;8.22;99.99
70246;SHT30;57637;49.272;8.590;2022-11-10T03:48:19;8.21;99.99
70246;SHT30;57637;49.272;8.590;2022-11-10T03:50:44;8.20;99.99
70246;SHT30;57637;49.272;8.590;2022-11-10T03:53:10;8.15;99.99
70246;SHT30;57637;49.272;8.590;2022-11-10T03:55:35;8.12;99.99
70246;SHT30;57637;49.272;8.590;2022-11-10T03:58:01;8.11;99.99
70246;SHT30;57637;49.272;8.590;2022-11-10T04:00:27;8.06;99.99
70246;SHT30;57637;49.272;8.590;2022-11-10T04:02:53;8.04;99.99
70246;SHT30;57637;49.272;8.590;2022-11-10T04:05:19;7.98;99.99
70246;SHT30;57637;49.272;8.590;2022-11-10T04:08:04;8.01;99.99
70246;SHT30;57637;49.272;8.590;2022-11-10T04:10:56;8.05;99.99
70246;SHT30;57637;49.272;8.590;2022-11-10T04:13:21;8.01;99.99
70246;SHT30;57637;49.272;8.590;2022-11-10T04:16:06;7.98;99.99
70246;SHT30;57637;49.272;8.590;2022-11-10T04:18:31;7.95;99.99
70246;SHT30;57637;49.272;8.590;2022-11-10T04:20:57;7.94;99.99
70246;SHT30;57637;49.272;8.590;2022-11-10T04:23:25;7.94;99.99
70246;SHT30;57637;49.272;8.590;2022-11-10T04:25:57;7.95;99.99
70246;SHT30;57637;49.272;8.590;2022-11-10T04:28:47;7.90;99.99
70246;SHT30;57637;49.272;8.590;2022-11-10T04:31:17;7.90;99.99
70246;SHT30;57637;49.272;8.590;2022-11-10T04:33:43;7.90;99.99
70246;SHT30;57637;49.272;8.590;2022-11-10T04:36:10;7.91;99.99
70246;SHT30;57637;49.272;8.590;2022-11-10T04:38:37;7.88;99.99
70246;SHT30;57637;49.272;8.590;2022-11-10T04:41:04;7.85;99.99
70246;SHT30;57637;49.272;8.590;2022-11-10T04:43:30;7.83;99.99
70246;SHT30;57637;49.272;8.590;2022-11-10T04:45:56;7.87;99.99
70246;SHT30;57637;49.272;8.590;2022-11-10T04:48:22;7.83;99.99
70246;SHT30;57637;49.272;8.590;2022-11-10T04:50:47;7.83;99.99
70246;SHT30;57637;49.272;8.590;2022-11-10T04:53:13;7.78;99.99
70246;SHT30;57637;49.272;8.590;2022-11-10T04:55:40;7.71;99.99
70246;SHT30;57637;49.272;8.590;2022-11-10T04:58:07;7.69;99.99
70246;SHT30;57637;49.272;8.590;2022-11-10T05:00:32;7.64;99.99
70246;SHT30;57637;49.272;8.590;2022-11-10T05:02:59;7.64;99.99
70246;SHT30;57637;49.272;8.590;2022-11-10T05:05:26;7.66;99.99
70246;SHT30;57637;49.272;8.590;2022-11-10T05:07:51;7.67;99.99
70246;SHT30;57637;49.272;8.590;2022-11-10T05:10:17;7.59;99.99
70246;SHT30;57637;49.272;8.590;2022-11-10T05:12:42;7.60;99.99
70246;SHT30;57637;49.272;8.590;2022-11-10T05:15:08;7.57;99.99
70246;SHT30;57637;49.272;8.590;2022-11-10T05:17:33;7.59;99.99
70246;SHT30;57637;49.272;8.590;2022-11-10T05:19:59;7.63;99.99
70246;SHT30;57637;49.272;8.590;2022-11-10T05:22:24;7.66;99.99
70246;SHT30;57637;49.272;8.590;2022-11-10T05:24:49;7.67;99.99
70246;SHT30;57637;49.272;8.590;2022-11-10T05:27:15;7.67;99.99
70246;SHT30;57637;49.272;8.590;2022-11-10T05:29:41;7.63;99.99
70246;SHT30;57637;49.272;8.590;2022-11-10T05:32:06;7.64;99.99
70246;SHT30;57637;49.272;8.590;2022-11-10T05:34:31;7.63;99.99
70246;SHT30;57637;49.272;8.590;2022-11-10T05:36:57;7.62;99.99
70246;SHT30;57637;49.272;8.590;2022-11-10T05:39:22;7.57;99.99
70246;SHT30;57637;49.272;8.590;2022-11-10T05:41:47;7.60;99.99
70246;SHT30;57637;49.272;8.590;2022-11-10T05:44:13;7.62;99.99
70246;SHT30;57637;49.272;8.590;2022-11-10T05:46:38;7.62;99.99
70246;SHT30;57637;49.272;8.590;2022-11-10T05:49:04;7.63;99.99
70246;SHT30;57637;49.272;8.590;2022-11-10T05:51:32;7.63;99.99
70246;SHT30;57637;49.272;8.590;2022-11-10T05:53:58;7.62;99.99
70246;SHT30;57637;49.272;8.590;2022-11-10T05:56:23;7.59;99.99
70246;SHT30;57637;49.272;8.590;2022-11-10T05:58:48;7.59;99.99
70246;SHT30;57637;49.272;8.590;2022-11-10T06:01:14;7.59;99.99
70246;SHT30;57637;49.272;8.590;2022-11-10T06:03:39;7.60;99.99
70246;SHT30;57637;49.272;8.590;2022-11-10T06:06:05;7.60;99.99
70246;SHT30;57637;49.272;8.590;2022-11-10T06:08:30;7.57;99.99
70246;SHT30;57637;49.272;8.590;2022-11-10T06:10:55;7.54;99.99
70246;SHT30;57637;49.272;8.590;2022-11-10T06:13:21;7.49;99.99
70246;SHT30;57637;49.272;8.590;2022-11-10T06:15:47;7.50;99.99
70246;SHT30;57637;49.272;8.590;2022-11-10T06:18:12;7.47;99.99
70246;SHT30;57637;49.272;8.590;2022-11-10T06:20:37;7.44;99.99
70246;SHT30;57637;49.272;8.590;2022-11-10T06:23:04;7.46;99.99
70246;SHT30;57637;49.272;8.590;2022-11-10T06:25:32;7.47;99.99
70246;SHT30;57637;49.272;8.590;2022-11-10T06:27:59;7.46;99.99
70246;SHT30;57637;49.272;8.590;2022-11-10T06:30:25;7.46;99.99
70246;SHT30;57637;49.272;8.590;2022-11-10T06:32:51;7.47;99.99
70246;SHT30;57637;49.272;8.590;2022-11-10T06:35:17;7.47;99.99
70246;SHT30;57637;49.272;8.590;2022-11-10T06:37:43;7.44;99.99
70246;SHT30;57637;49.272;8.590;2022-11-10T06:40:09;7.46;99.99
70246;SHT30;57637;49.272;8.590;2022-11-10T06:42:37;7.43;99.99
70246;SHT30;57637;49.272;8.590;2022-11-10T06:45:02;7.49;99.99
70246;SHT30;57637;49.272;8.590;2022-11-10T06:47:28;7.49;99.99
70246;SHT30;57637;49.272;8.590;2022-11-10T06:49:54;7.54;99.99
70246;SHT30;57637;49.272;8.590;2022-11-10T06:52:19;7.57;99.99
70246;SHT30;57637;49.272;8.590;2022-11-10T06:54:44;7.63;99.99
70246;SHT30;57637;49.272;8.590;2022-11-10T06:57:10;7.66;99.99
70246;SHT30;57637;49.272;8.590;2022-11-10T06:59:35;7.64;99.99
70246;SHT30;57637;49.272;8.590;2022-11-10T07:02:01;7.67;99.99
70246;SHT30;57637;49.272;8.590;2022-11-10T07:04:26;7.69;99.99
70246;SHT30;57637;49.272;8.590;2022-11-10T07:06:52;7.75;99.99
70246;SHT30;57637;49.272;8.590;2022-11-10T07:09:18;7.74;99.99
70246;SHT30;57637;49.272;8.590;2022-11-10T07:11:43;7.75;99.99
70246;SHT30;57637;49.272;8.590;2022-11-10T07:14:08;7.80;99.99
70246;SHT30;57637;49.272;8.590;2022-11-10T07:16:34;7.80;99.99
70246;SHT30;57637;49.272;8.590;2022-11-10T07:18:59;7.83;99.99
70246;SHT30;57637;49.272;8.590;2022-11-10T07:21:24;7.85;99.99
70246;SHT30;57637;49.272;8.590;2022-11-10T07:23:50;7.90;99.99
70246;SHT30;57637;49.272;8.590;2022-11-10T07:26:15;8.01;99.99
70246;SHT30;57637;49.272;8.590;2022-11-10T07:28:40;8.04;99.99
70246;SHT30;57637;49.272;8.590;2022-11-10T07:31:06;8.06;99.99
70246;SHT30;57637;49.272;8.590;2022-11-10T07:33:32;8.16;99.99
70246;SHT30;57637;49.272;8.590;2022-11-10T07:35:59;8.21;99.99
70246;SHT30;57637;49.272;8.590;2022-11-10T07:38:27;8.26;99.99
70246;SHT30;57637;49.272;8.590;2022-11-10T07:40:53;8.35;99.99
70246;SHT30;57637;49.272;8.590;2022-11-10T07:43:19;8.49;99.99
70246;SHT30;57637;49.272;8.590;2022-11-10T07:45:45;8.57;99.99
70246;SHT30;57637;49.272;8.590;2022-11-10T07:48:11;8.67;99.99
70246;SHT30;57637;49.272;8.590;2022-11-10T07:50:38;8.66;99.99
70246;SHT30;57637;49.272;8.590;2022-11-10T07:53:05;8.72;99.99
70246;SHT30;57637;49.272;8.590;2022-11-10T07:55:32;8.76;99.99
70246;SHT30;57637;49.272;8.590;2022-11-10T07:57:58;8.86;99.99
70246;SHT30;57637;49.272;8.590;2022-11-10T08:00:24;9.00;99.99
70246;SHT30;57637;49.272;8.590;2022-11-10T08:02:50;9.04;99.99
70246;SHT30;57637;49.272;8.590;2022-11-10T08:05:16;9.24;99.99
70246;SHT30;57637;49.272;8.590;2022-11-10T08:07:42;9.24;99.92
70246;SHT30;57637;49.272;8.590;2022-11-10T08:10:07;9.40;99.80
70246;SHT30;57637;49.272;8.590;2022-11-10T08:12:33;9.40;99.45
70246;SHT30;57637;49.272;8.590;2022-11-10T08:14:59;9.58;99.51
70246;SHT30;57637;49.272;8.590;2022-11-10T08:17:24;9.59;99.12
70246;SHT30;57637;49.272;8.590;2022-11-10T08:19:50;9.78;99.36
70246;SHT30;57637;49.272;8.590;2022-11-10T08:22:15;9.86;99.05
70246;SHT30;57637;49.272;8.590;2022-11-10T08:24:40;9.92;98.79
70246;SHT30;57637;49.272;8.590;2022-11-10T08:27:06;10.06;98.74
70246;SHT30;57637;49.272;8.590;2022-11-10T08:29:31;10.16;98.52
70246;SHT30;57637;49.272;8.590;2022-11-10T08:31:57;10.28;98.32
70246;SHT30;57637;49.272;8.590;2022-11-10T08:34:22;10.42;98.08
70246;SHT30;57637;49.272;8.590;2022-11-10T08:36:50;10.50;97.74
70246;SHT30;57637;49.272;8.590;2022-11-10T08:39:15;10.60;97.44
70246;SHT30;57637;49.272;8.590;2022-11-10T08:41:41;10.74;97.22
70246;SHT30;57637;49.272;8.590;2022-11-10T08:44:06;10.83;96.77
70246;SHT30;57637;49.272;8.590;2022-11-10T08:46:32;10.95;96.35
70246;SHT30;57637;49.272;8.590;2022-11-10T08:48:57;11.01;95.71
70246;SHT30;57637;49.272;8.590;2022-11-10T08:51:22;11.19;95.59
70246;SHT30;57637;49.272;8.590;2022-11-10T08:53:48;11.32;95.10
70246;SHT30;57637;49.272;8.590;2022-11-10T08:56:13;11.45;94.66
70246;SHT30;57637;49.272;8.590;2022-11-10T08:58:38;11.56;94.16
70246;SHT30;57637;49.272;8.590;2022-11-10T09:01:07;11.70;93.70
70246;SHT30;57637;49.272;8.590;2022-11-10T09:03:33;11.79;93.26
70246;SHT30;57637;49.272;8.590;2022-11-10T09:05:59;11.89;92.80
70246;SHT30;57637;49.272;8.590;2022-11-10T09:08:24;12.03;92.21
70246;SHT30;57637;49.272;8.590;2022-11-10T09:10:50;12.16;92.34
70246;SHT30;57637;49.272;8.590;2022-11-10T09:13:16;12.28;91.68
70246;SHT30;57637;49.272;8.590;2022-11-10T09:15:42;12.41;90.87
70246;SHT30;57637;49.272;8.590;2022-11-10T09:18:08;12.50;90.17
70246;SHT30;57637;49.272;8.590;2022-11-10T09:20:36;12.61;89.88
70246;SHT30;57637;49.272;8.590;2022-11-10T09:23:02;12.78;89.39
70246;SHT30;57637;49.272;8.590;2022-11-10T09:25:29;12.91;89.31
70246;SHT30;57637;49.272;8.590;2022-11-10T09:27:55;12.96;88.80
70246;SHT30;57637;49.272;8.590;2022-11-10T09:30:20;13.05;88.36
70246;SHT30;57637;49.272;8.590;2022-11-10T09:32:48;13.08;88.25
70246;SHT30;57637;49.272;8.590;2022-11-10T09:35:17;13.16;87.35
70246;SHT30;57637;49.272;8.590;2022-11-10T09:37:42;13.24;86.68
70246;SHT30;57637;49.272;8.590;2022-11-10T09:40:11;13.50;87.12
70246;SHT30;57637;49.272;8.590;2022-11-10T09:42:42;13.59;86.52
70246;SHT30;57637;49.272;8.590;2022-11-10T09:47:56;13.38;86.23
70246;SHT30;57637;49.272;8.590;2022-11-10T09:53:19;13.67;86.16
70246;SHT30;57637;49.272;8.590;2022-11-10T09:55:52;13.70;85.93
70246;SHT30;57637;49.272;8.590;2022-11-10T09:58:22;13.66;85.28
70246;SHT30;57637;49.272;8.590;2022-11-10T10:00:58;13.60;85.96
70246;SHT30;57637;49.272;8.590;2022-11-10T10:03:31;13.47;85.92
70246;SHT30;57637;49.272;8.590;2022-11-10T10:06:10;13.53;85.93
70246;SHT30;57637;49.272;8.590;2022-11-10T10:08:44;13.53;85.91
70246;SHT30;57637;49.272;8.590;2022-11-10T10:11:20;13.88;85.84
70246;SHT30;57637;49.272;8.590;2022-11-10T10:24:13;14.28;82.61
70246;SHT30;57637;49.272;8.590;2022-11-10T10:26:41;14.34;82.40
70246;SHT30;57637;49.272;8.590;2022-11-10T10:29:14;14.35;82.39
70246;SHT30;57637;49.272;8.590;2022-11-10T10:31:47;14.45;82.69
70246;SHT30;57637;49.272;8.590;2022-11-10T10:34:20;14.52;82.07
70246;SHT30;57637;49.272;8.590;2022-11-10T10:36:47;14.55;82.13
70246;SHT30;57637;49.272;8.590;2022-11-10T10:39:17;14.55;82.53
70246;SHT30;57637;49.272;8.590;2022-11-10T10:41:56;14.62;82.16
70246;SHT30;57637;49.272;8.590;2022-11-10T10:44:22;14.72;82.40
70246;SHT30;57637;49.272;8.590;2022-11-10T10:46:48;14.73;81.96
70246;SHT30;57637;49.272;8.590;2022-11-10T10:51:48;14.93;81.62
70246;SHT30;57637;49.272;8.590;2022-11-10T10:54:22;14.95;81.16
70246;SHT30;57637;49.272;8.590;2022-11-10T10:59:26;14.80;80.56
70246;SHT30;57637;49.272;8.590;2022-11-10T11:01:52;14.87;81.03
70246;SHT30;57637;49.272;8.590;2022-11-10T11:04:25;14.90;81.04
70246;SHT30;57637;49.272;8.590;2022-11-10T11:06:55;14.87;80.11
70246;SHT30;57637;49.272;8.590;2022-11-10T11:09:26;14.86;80.55
70246;SHT30;57637;49.272;8.590;2022-11-10T11:12:04;14.85;80.82
70246;SHT30;57637;49.272;8.590;2022-11-10T11:14:32;14.62;81.90
70246;SHT30;57637;49.272;8.590;2022-11-10T11:19:34;14.82;81.10
70246;SHT30;57637;49.272;8.590;2022-11-10T11:22:04;14.78;80.95
70246;SHT30;57637;49.272;8.590;2022-11-10T11:24:47;14.89;80.28
70246;SHT30;57637;49.272;8.590;2022-11-10T11:27:23;14.92;80.01
70246;SHT30;57637;49.272;8.590;2022-11-10T11:30:02;15.03;79.94
70246;SHT30;57637;49.272;8.590;2022-11-10T11:33:11;15.13;80.16
70246;SHT30;57637;49.272;8.590;2022-11-10T11:35:58;15.26;79.75
70246;SHT30;57637;49.272;8.590;2022-11-10T11:46:46;15.31;79.71
70246;SHT30;57637;49.272;8.590;2022-11-10T11:52:56;15.40;78.43
70246;SHT30;57637;49.272;8.590;2022-11-10T11:55:16;15.44;77.58
70246;SHT30;57637;49.272;8.590;2022-11-10T11:57:57;15.48;77.48
70246;SHT30;57637;49.272;8.590;2022-11-10T12:00:43;15.46;76.82
70246;SHT30;57637;49.272;8.590;2022-11-10T12:03:24;15.53;76.37
70246;SHT30;57637;49.272;8.590;2022-11-10T12:06:23;15.61;76.54
70246;SHT30;57637;49.272;8.590;2022-11-10T12:09:00;15.58;76.02
70246;SHT30;57637;49.272;8.590;2022-11-10T12:11:45;15.65;75.82
70246;SHT30;57637;49.272;8.590;2022-11-10T12:16:59;15.50;75.83
70246;SHT30;57637;49.272;8.590;2022-11-10T12:22:30;15.53;75.62
70246;SHT30;57637;49.272;8.590;2022-11-10T12:25:44;15.62;75.25
70246;SHT30;57637;49.272;8.590;2022-11-10T12:30:57;15.51;74.75
70246;SHT30;57637;49.272;8.590;2022-11-10T12:33:32;15.36;75.02
70246;SHT30;57637;49.272;8.590;2022-11-10T12:36:07;15.44;75.21
70246;SHT30;57637;49.272;8.590;2022-11-10T12:39:38;15.50;74.75
70246;SHT30;57637;49.272;8.590;2022-11-10T12:41:42;15.58;74.61
70246;SHT30;57637;49.272;8.590;2022-11-10T12:46:44;15.65;73.58
70246;SHT30;57637;49.272;8.590;2022-11-10T12:49:15;15.65;73.49
70246;SHT30;57637;49.272;8.590;2022-11-10T12:54:51;15.64;73.07
70246;SHT30;57637;49.272;8.590;2022-11-10T12:57:24;15.67;73.06
70246;SHT30;57637;49.272;8.590;2022-11-10T12:59:54;15.67;72.85
70246;SHT30;57637;49.272;8.590;2022-11-10T13:02:28;15.62;72.93
70246;SHT30;57637;49.272;8.590;2022-11-10T13:07:39;15.55;73.04
70246;SHT30;57637;49.272;8.590;2022-11-10T13:10:39;15.54;72.76
70246;SHT30;57637;49.272;8.590;2022-11-10T13:13:11;15.54;73.03
70246;SHT30;57637;49.272;8.590;2022-11-10T13:18:10;15.54;73.06
70246;SHT30;57637;49.272;8.590;2022-11-10T13:20:53;15.48;73.06
70246;SHT30;57637;49.272;8.590;2022-11-10T13:23:29;15.53;73.59
70246;SHT30;57637;49.272;8.590;2022-11-10T13:29:14;15.36;74.34
70246;SHT30;57637;49.272;8.590;2022-11-10T13:34:09;15.44;73.52
70246;SHT30;57637;49.272;8.590;2022-11-10T13:36:53;15.43;73.89
70246;SHT30;57637;49.272;8.590;2022-11-10T13:44:38;15.34;74.55
70246;SHT30;57637;49.272;8.590;2022-11-10T13:52:14;15.24;74.00
70246;SHT30;57637;49.272;8.590;2022-11-10T13:57:22;15.13;74.23
70246;SHT30;57637;49.272;8.590;2022-11-10T14:03:49;15.04;74.23
70246;SHT30;57637;49.272;8.590;2022-11-10T14:08:06;14.89;73.34
70246;SHT30;57637;49.272;8.590;2022-11-10T14:13:10;14.78;73.58
70246;SHT30;57637;49.272;8.590;2022-11-10T14:15:44;14.66;74.47
70246;SHT30;57637;49.272;8.590;2022-11-10T14:20:45;14.69;74.27
70246;SHT30;57637;49.272;8.590;2022-11-10T14:25:58;14.64;74.35
70246;SHT30;57637;49.272;8.590;2022-11-10T14:28:28;14.59;74.77
70246;SHT30;57637;49.272;8.590;2022-11-10T14:30:55;14.55;74.85
70246;SHT30;57637;49.272;8.590;2022-11-10T14:33:21;14.51;74.21
70246;SHT30;57637;49.272;8.590;2022-11-10T14:38:25;14.45;74.35
70246;SHT30;57637;49.272;8.590;2022-11-10T14:40:53;14.36;74.43
70246;SHT30;57637;49.272;8.590;2022-11-10T14:43:25;14.34;75.15
70246;SHT30;57637;49.272;8.590;2022-11-10T14:45:57;14.31;75.32
70246;SHT30;57637;49.272;8.590;2022-11-10T14:48:23;14.26;75.50
70246;SHT30;57637;49.272;8.590;2022-11-10T14:50:51;14.21;75.74
70246;SHT30;57637;49.272;8.590;2022-11-10T14:53:27;14.11;75.23
70246;SHT30;57637;49.272;8.590;2022-11-10T14:55:53;14.10;75.86
70246;SHT30;57637;49.272;8.590;2022-11-10T14:58:23;14.05;76.16
70246;SHT30;57637;49.272;8.590;2022-11-10T15:00:51;14.01;76.51
70246;SHT30;57637;49.272;8.590;2022-11-10T15:06:00;13.81;76.78
70246;SHT30;57637;49.272;8.590;2022-11-10T15:08:28;13.74;76.80
70246;SHT30;57637;49.272;8.590;2022-11-10T15:10:54;13.67;77.54
70246;SHT30;57637;49.272;8.590;2022-11-10T15:18:50;13.39;78.48
70246;SHT30;57637;49.272;8.590;2022-11-10T15:21:16;13.32;78.81
70246;SHT30;57637;49.272;8.590;2022-11-10T15:23:46;13.22;79.25
70246;SHT30;57637;49.272;8.590;2022-11-10T15:26:21;13.12;79.37
70246;SHT30;57637;49.272;8.590;2022-11-10T15:28:49;13.06;79.69
70246;SHT30;57637;49.272;8.590;2022-11-10T15:31:28;13.01;79.71
70246;SHT30;57637;49.272;8.590;2022-11-10T15:33:56;12.93;80.09
70246;SHT30;57637;49.272;8.590;2022-11-10T15:41:48;12.67;81.60
70246;SHT30;57637;49.272;8.590;2022-11-10T15:44:16;12.58;81.90
70246;SHT30;57637;49.272;8.590;2022-11-10T15:46:46;12.45;82.31
70246;SHT30;57637;49.272;8.590;2022-11-10T15:49:25;12.34;82.93
70246;SHT30;57637;49.272;8.590;2022-11-10T15:52:13;12.24;83.20
70246;SHT30;57637;49.272;8.590;2022-11-10T15:54:41;12.16;83.19
70246;SHT30;57637;49.272;8.590;2022-11-10T15:57:12;12.09;83.49
70246;SHT30;57637;49.272;8.590;2022-11-10T15:59:39;12.01;83.38
70246;SHT30;57637;49.272;8.590;2022-11-10T16:02:16;11.94;83.36
70246;SHT30;57637;49.272;8.590;2022-11-10T16:04:44;11.87;83.35
70246;SHT30;57637;49.272;8.590;2022-11-10T16:07:11;11.82;83.74
70246;SHT30;57637;49.272;8.590;2022-11-10T16:09:36;11.76;84.04
70246;SHT30;57637;49.272;8.590;2022-11-10T16:12:02;11.56;84.51
70246;SHT30;57637;49.272;8.590;2022-11-10T16:14:27;11.45;84.71
70246;SHT30;57637;49.272;8.590;2022-11-10T16:16:53;11.36;84.84
70246;SHT30;57637;49.272;8.590;2022-11-10T16:19:18;11.26;85.41
70246;SHT30;57637;49.272;8.590;2022-11-10T16:21:44;11.15;86.02
70246;SHT30;57637;49.272;8.590;2022-11-10T16:24:09;11.05;86.48
70246;SHT30;57637;49.272;8.590;2022-11-10T16:26:35;11.01;86.81
70246;SHT30;57637;49.272;8.590;2022-11-10T16:29:00;10.94;86.84
70246;SHT30;57637;49.272;8.590;2022-11-10T16:31:26;10.88;86.90
70246;SHT30;57637;49.272;8.590;2022-11-10T16:33:52;10.88;87.08
70246;SHT30;57637;49.272;8.590;2022-11-10T16:36:24;10.84;87.03
70246;SHT30;57637;49.272;8.590;2022-11-10T16:38:52;10.77;87.12
70246;SHT30;57637;49.272;8.590;2022-11-10T16:41:18;10.71;87.42
70246;SHT30;57637;49.272;8.590;2022-11-10T16:43:44;10.54;87.53
70246;SHT30;57637;49.272;8.590;2022-11-10T16:46:19;10.43;88.32
70246;SHT30;57637;49.272;8.590;2022-11-10T16:48:47;10.39;88.68
70246;SHT30;57637;49.272;8.590;2022-11-10T16:51:15;10.37;88.73
70246;SHT30;57637;49.272;8.590;2022-11-10T16:53:42;10.37;88.91
70246;SHT30;57637;49.272;8.590;2022-11-10T16:56:12;10.36;88.65
70246;SHT30;57637;49.272;8.590;2022-11-10T16:58:39;10.14;88.75
70246;SHT30;57637;49.272;8.590;2022-11-10T17:01:04;9.98;89.10
70246;SHT30;57637;49.272;8.590;2022-11-10T17:03:37;9.78;89.56
70246;SHT30;57637;49.272;8.590;2022-11-10T17:06:09;9.61;89.99
70246;SHT30;57637;49.272;8.590;2022-11-10T17:08:37;9.42;90.55
70246;SHT30;57637;49.272;8.590;2022-11-10T17:11:06;9.32;90.97
70246;SHT30;57637;49.272;8.590;2022-11-10T17:13:32;9.27;91.45
70246;SHT30;57637;49.272;8.590;2022-11-10T17:16:00;9.27;91.68
70246;SHT30;57637;49.272;8.590;2022-11-10T17:18:31;9.24;92.03
70246;SHT30;57637;49.272;8.590;2022-11-10T17:20:59;9.18;92.20
70246;SHT30;57637;49.272;8.590;2022-11-10T17:23:25;9.11;92.32
70246;SHT30;57637;49.272;8.590;2022-11-10T17:25:50;9.06;92.86
70246;SHT30;57637;49.272;8.590;2022-11-10T17:28:18;9.06;93.26
70246;SHT30;57637;49.272;8.590;2022-11-10T17:30:43;9.03;93.27
70246;SHT30;57637;49.272;8.590;2022-11-10T17:33:09;8.99;93.29